createdAt,value
2023-05-19T00:01:25.218Z,2.85
2023-05-19T00:03:57.941Z,3.17
2023-05-19T00:06:32.239Z,3.38
2023-05-19T00:09:08.000Z,3.22
2023-05-19T00:11:40.331Z,3.55
2023-05-19T00:14:11.271Z,4.50
2023-05-19T00:16:42.982Z,2.72
2023-05-19T00:19:13.178Z,5.57
2023-05-19T00:21:43.416Z,3.22
2023-05-19T00:24:13.713Z,3.10
2023-05-19T00:26:43.923Z,3.35
2023-05-19T00:29:18.642Z,3.78
2023-05-19T00:31:48.955Z,3.85
2023-05-19T00:34:17.319Z,3.28
2023-05-19T00:36:45.738Z,3.25
2023-05-19T00:39:14.273Z,3.50
2023-05-19T00:41:42.772Z,3.38
2023-05-19T00:44:11.032Z,3.55
2023-05-19T00:46:39.488Z,3.20
2023-05-19T00:49:07.842Z,3.40
2023-05-19T00:51:37.371Z,3.22
2023-05-19T00:54:05.419Z,3.10
2023-05-19T00:56:33.852Z,3.00
2023-05-19T00:59:01.725Z,4.13
2023-05-19T01:01:29.158Z,3.42
2023-05-19T01:03:59.353Z,3.92
2023-05-19T01:06:29.807Z,3.25
2023-05-19T01:08:57.624Z,3.67
2023-05-19T01:11:25.747Z,2.90
2023-05-19T01:13:54.156Z,3.03
2023-05-19T01:17:12.049Z,3.30
2023-05-19T01:20:22.232Z,3.83
2023-05-19T01:23:37.027Z,3.22
2023-05-19T01:26:49.651Z,3.05
2023-05-19T01:30:28.837Z,3.83
2023-05-19T01:33:06.886Z,4.18
2023-05-19T01:35:40.550Z,2.78
2023-05-19T01:38:17.683Z,3.47
2023-05-19T01:40:51.411Z,3.05
2023-05-19T01:43:27.277Z,3.47
2023-05-19T01:45:59.140Z,3.15
2023-05-19T01:48:31.026Z,3.75
2023-05-19T01:51:01.293Z,4.32
2023-05-19T01:53:31.712Z,2.78
2023-05-19T01:56:01.951Z,3.58
2023-05-19T01:58:58.658Z,2.88
2023-05-19T02:01:54.496Z,3.40
2023-05-19T02:04:57.712Z,2.95
2023-05-19T02:07:52.592Z,3.05
2023-05-19T02:10:32.015Z,3.28
2023-05-19T02:13:11.432Z,3.30
2023-05-19T02:15:43.887Z,2.85
2023-05-19T02:18:18.195Z,3.50
2023-05-19T02:20:48.768Z,2.63
2023-05-19T02:23:18.924Z,3.17
2023-05-19T02:25:49.180Z,3.05
2023-05-19T02:28:19.756Z,3.08
2023-05-19T02:30:49.926Z,2.92
2023-05-19T02:33:20.273Z,3.20
2023-05-19T02:35:50.934Z,3.22
2023-05-19T02:38:21.580Z,3.50
2023-05-19T02:40:54.747Z,3.00
2023-05-19T02:43:24.884Z,3.80
2023-05-19T02:45:55.108Z,3.42
2023-05-19T02:48:25.315Z,3.47
2023-05-19T02:50:55.527Z,2.80
2023-05-19T02:53:25.821Z,3.45
2023-05-19T02:55:56.038Z,2.70
2023-05-19T02:58:26.196Z,2.60
2023-05-19T03:00:56.330Z,3.30
2023-05-19T03:03:24.694Z,3.03
2023-05-19T03:05:53.904Z,3.28
2023-05-19T03:08:21.338Z,3.80
2023-05-19T03:10:51.467Z,3.00
2023-05-19T03:13:21.704Z,2.90
2023-05-19T03:15:51.926Z,3.28
2023-05-19T03:18:24.800Z,2.63
2023-05-19T03:20:55.121Z,2.70
2023-05-19T03:23:25.304Z,2.90
2023-05-19T03:25:56.452Z,2.80
2023-05-19T03:28:29.675Z,2.90
2023-05-19T03:30:58.178Z,3.47
2023-05-19T03:33:30.137Z,3.80
2023-05-19T03:36:00.350Z,2.90
2023-05-19T03:38:30.585Z,2.95
2023-05-19T03:41:00.769Z,2.50
2023-05-19T03:43:31.028Z,3.00
2023-05-19T03:46:02.426Z,2.75
2023-05-19T03:48:32.767Z,2.42
2023-05-19T03:51:04.543Z,2.42
2023-05-19T03:53:35.265Z,3.00
2023-05-19T03:56:07.718Z,3.75
2023-05-19T03:58:41.004Z,3.10
2023-05-19T04:01:14.305Z,3.22
2023-05-19T04:03:44.527Z,3.05
2023-05-19T04:06:14.774Z,2.95
2023-05-19T04:08:44.953Z,2.95
2023-05-19T04:11:15.180Z,2.65
2023-05-19T04:13:45.415Z,3.00
2023-05-19T04:16:15.769Z,3.10
2023-05-19T04:18:46.602Z,3.65
2023-05-19T04:21:16.952Z,2.63
2023-05-19T04:23:47.090Z,3.47
2023-05-19T04:26:18.216Z,3.03
2023-05-19T04:28:49.050Z,2.67
2023-05-19T04:31:21.792Z,2.42
2023-05-19T04:33:53.677Z,2.33
2023-05-19T04:36:24.141Z,2.88
2023-05-19T04:38:55.045Z,3.00
2023-05-19T04:41:23.205Z,2.70
2023-05-19T04:43:51.307Z,2.97
2023-05-19T04:46:24.547Z,3.28
2023-05-19T04:48:57.300Z,3.40
2023-05-19T04:51:31.519Z,3.50
2023-05-19T04:54:01.891Z,3.40
2023-05-19T04:56:32.061Z,3.45
2023-05-19T04:59:02.317Z,3.25
2023-05-19T05:01:34.025Z,3.70
2023-05-19T05:04:04.671Z,3.28
2023-05-19T05:06:34.899Z,3.03
2023-05-19T05:09:05.124Z,3.35
2023-05-19T05:11:36.017Z,3.28
2023-05-19T05:14:06.748Z,4.20
2023-05-19T05:16:37.725Z,3.97
2023-05-19T05:19:08.536Z,4.13
2023-05-19T05:21:39.209Z,4.25
2023-05-19T05:24:11.350Z,3.72
2023-05-19T05:26:43.060Z,3.50
2023-05-19T05:29:13.176Z,3.75
2023-05-19T05:31:43.366Z,3.67
2023-05-19T05:34:14.558Z,4.10
2023-05-19T05:36:44.764Z,3.60
2023-05-19T05:39:14.949Z,3.47
2023-05-19T05:41:44.975Z,3.55
2023-05-19T05:44:15.183Z,3.72
2023-05-19T05:46:46.298Z,3.63
2023-05-19T05:49:16.275Z,3.25
2023-05-19T05:52:01.553Z,3.50
2023-05-19T05:54:35.646Z,3.95
2023-05-19T05:57:06.747Z,3.65
2023-05-19T05:59:36.896Z,3.90
2023-05-19T06:02:07.730Z,3.90
2023-05-19T06:04:37.976Z,3.70
2023-05-19T06:07:08.528Z,3.78
2023-05-19T06:09:38.729Z,3.70
2023-05-19T06:12:11.417Z,3.72
2023-05-19T06:14:39.243Z,3.88
2023-05-19T06:17:07.763Z,3.55
2023-05-19T06:19:36.207Z,3.25
2023-05-19T06:22:04.856Z,3.97
2023-05-19T06:24:35.712Z,3.10
2023-05-19T06:27:06.770Z,3.97
2023-05-19T06:29:37.005Z,3.28
2023-05-19T06:32:07.241Z,4.45
2023-05-19T06:34:38.514Z,2.95
2023-05-19T06:37:06.300Z,4.20
2023-05-19T06:39:35.190Z,4.18
2023-05-19T06:42:04.009Z,4.13
2023-05-19T06:44:34.188Z,3.42
2023-05-19T06:47:04.784Z,3.55
2023-05-19T06:49:33.390Z,3.88
2023-05-19T06:52:01.989Z,3.85
2023-05-19T06:54:30.894Z,3.15
2023-05-19T06:56:59.102Z,4.05
2023-05-19T06:59:27.556Z,2.95
2023-05-19T07:01:56.308Z,3.08
2023-05-19T07:04:24.546Z,3.70
2023-05-19T07:06:53.635Z,3.78
2023-05-19T07:09:21.465Z,3.20
2023-05-19T07:11:49.789Z,4.00
2023-05-19T07:14:18.588Z,3.65
2023-05-19T07:16:47.158Z,3.60
2023-05-19T07:19:15.706Z,3.92
2023-05-19T07:21:44.165Z,3.67
2023-05-19T07:24:12.651Z,3.72
2023-05-19T07:26:41.672Z,3.45
2023-05-19T07:29:11.891Z,4.00
2023-05-19T07:31:42.091Z,3.65
2023-05-19T07:34:12.310Z,3.65
2023-05-19T07:36:42.537Z,4.30
2023-05-19T07:39:12.908Z,3.40
2023-05-19T07:41:43.281Z,3.50
2023-05-19T07:44:13.446Z,3.47
2023-05-19T07:46:43.652Z,3.90
2023-05-19T07:49:10.914Z,3.40
2023-05-19T07:51:38.115Z,3.75
2023-05-19T07:54:08.620Z,3.38
2023-05-19T07:56:39.580Z,4.15
2023-05-19T07:59:08.442Z,3.53
2023-05-19T08:01:36.604Z,3.70
2023-05-19T08:04:06.185Z,3.13
2023-05-19T08:06:36.397Z,3.90
2023-05-19T08:09:06.696Z,4.55
2023-05-19T08:11:37.206Z,3.47
2023-05-19T08:14:07.444Z,3.38
2023-05-19T08:16:37.705Z,3.65
2023-05-19T08:19:07.987Z,2.90
2023-05-19T08:21:38.324Z,3.10
2023-05-19T08:24:09.434Z,3.85
2023-05-19T08:26:39.675Z,3.30
2023-05-19T08:29:09.879Z,3.28
2023-05-19T08:31:40.136Z,3.63
2023-05-19T08:34:10.436Z,3.50
2023-05-19T08:36:42.029Z,3.55
2023-05-19T08:39:14.113Z,3.28
2023-05-19T08:41:44.692Z,2.78
2023-05-19T08:44:17.516Z,3.13
2023-05-19T08:46:53.438Z,2.80
2023-05-19T08:49:47.642Z,3.10
2023-05-19T08:52:53.115Z,2.90
2023-05-19T08:55:36.822Z,2.33
2023-05-19T08:58:10.047Z,1.98
2023-05-19T09:00:39.189Z,2.75
2023-05-19T09:03:18.215Z,2.25
2023-05-19T09:05:52.815Z,1.98
2023-05-19T09:08:21.297Z,2.17
2023-05-19T09:10:49.407Z,2.10
2023-05-19T09:13:17.860Z,2.08
2023-05-19T09:15:48.018Z,2.30
2023-05-19T09:18:18.293Z,1.90
2023-05-19T09:20:47.354Z,2.20
2023-05-19T09:23:18.617Z,2.15
2023-05-19T09:25:52.600Z,1.60
2023-05-19T09:28:40.763Z,2.20
2023-05-19T09:31:12.033Z,1.90
2023-05-19T09:33:45.903Z,1.80
2023-05-19T09:36:16.690Z,1.50
2023-05-19T09:38:46.885Z,1.70
2023-05-19T09:41:17.350Z,2.53
2023-05-19T09:43:56.493Z,1.67
2023-05-19T09:46:30.451Z,2.22
2023-05-19T09:49:00.972Z,2.10
2023-05-19T09:51:32.161Z,1.67
2023-05-19T09:54:02.945Z,1.92
2023-05-19T09:56:35.895Z,1.75
2023-05-19T09:59:07.428Z,2.03
2023-05-19T10:01:41.770Z,2.00
2023-05-19T10:04:14.947Z,1.83
2023-05-19T10:06:46.389Z,1.70
2023-05-19T10:09:18.181Z,1.85
2023-05-19T10:11:51.706Z,1.60
2023-05-19T10:14:30.654Z,1.60
2023-05-19T10:17:01.001Z,1.63
2023-05-19T10:19:31.336Z,1.88
2023-05-19T10:22:01.574Z,1.50
2023-05-19T10:24:31.954Z,1.83
2023-05-19T10:27:14.896Z,1.60
2023-05-19T10:29:54.438Z,1.38
2023-05-19T10:32:32.915Z,1.30
2023-05-19T10:38:35.245Z,1.80
2023-05-19T10:41:34.590Z,1.70
2023-05-19T10:44:50.828Z,1.65
2023-05-19T10:47:28.441Z,1.63
2023-05-19T10:50:01.665Z,1.85
2023-05-19T10:52:38.736Z,1.80
2023-05-19T10:55:17.933Z,1.77
2023-05-19T10:57:58.832Z,1.70
2023-05-19T11:00:32.109Z,1.45
2023-05-19T11:06:28.113Z,1.70
2023-05-19T11:09:19.533Z,1.60
2023-05-19T11:11:54.157Z,1.90
2023-05-19T11:14:27.634Z,1.90
2023-05-19T11:17:01.052Z,1.80
2023-05-19T11:19:36.368Z,1.85
2023-05-19T11:22:13.286Z,1.88
2023-05-19T11:24:52.450Z,1.70
2023-05-19T11:27:38.631Z,2.05
2023-05-19T11:30:11.660Z,1.60
2023-05-19T11:32:42.756Z,1.58
2023-05-19T11:35:12.164Z,2.92
2023-05-19T11:37:43.172Z,1.73
2023-05-19T11:40:16.047Z,2.13
2023-05-19T11:42:46.349Z,2.10
2023-05-19T11:45:14.446Z,2.00
2023-05-19T11:48:01.371Z,2.30
2023-05-19T11:50:33.518Z,2.00
2023-05-19T11:53:04.635Z,1.90
2023-05-19T11:55:35.379Z,1.90
2023-05-19T11:58:06.113Z,2.08
2023-05-19T12:00:41.919Z,2.47
2023-05-19T12:03:13.264Z,2.10
2023-05-19T12:05:50.226Z,2.30
2023-05-19T12:08:21.782Z,2.10
2023-05-19T12:10:53.206Z,2.40
2023-05-19T12:13:23.780Z,2.05
2023-05-19T12:15:53.981Z,2.05
2023-05-19T12:18:29.734Z,2.20
2023-05-19T12:21:00.107Z,1.92
2023-05-19T12:23:30.956Z,2.30
2023-05-19T12:26:01.125Z,2.50
2023-05-19T12:28:31.570Z,3.45
2023-05-19T12:31:03.368Z,2.35
2023-05-19T12:33:35.685Z,2.92
2023-05-19T12:36:07.877Z,2.53
2023-05-19T12:38:39.732Z,2.38
2023-05-19T12:41:13.136Z,2.20
2023-05-19T12:43:43.346Z,2.95
2023-05-19T12:46:16.794Z,2.67
2023-05-19T12:48:48.388Z,2.28
2023-05-19T12:51:21.936Z,2.33
2023-05-19T12:53:52.360Z,2.67
2023-05-19T12:56:27.165Z,2.50
2023-05-19T12:58:57.315Z,2.28
2023-05-19T13:01:29.767Z,2.30
2023-05-19T13:04:00.298Z,2.20
2023-05-19T13:06:30.710Z,2.05
2023-05-19T13:09:00.941Z,2.00
2023-05-19T13:11:31.126Z,2.10
2023-05-19T13:14:01.300Z,1.85
2023-05-19T13:16:31.486Z,2.35
2023-05-19T13:19:01.847Z,3.38
2023-05-19T13:21:32.033Z,2.30
2023-05-19T13:24:04.019Z,2.17
2023-05-19T13:26:35.093Z,2.28
2023-05-19T13:29:06.053Z,2.00
2023-05-19T13:31:36.596Z,1.98
2023-05-19T13:34:07.184Z,1.98
2023-05-19T13:36:37.384Z,2.15
2023-05-19T13:39:07.584Z,2.00
2023-05-19T13:41:38.589Z,2.63
2023-05-19T13:44:08.812Z,2.20
2023-05-19T13:46:45.699Z,2.00
2023-05-19T13:49:17.144Z,2.42
2023-05-19T13:51:47.423Z,2.00
2023-05-19T13:54:18.520Z,1.90
2023-05-19T13:56:48.968Z,2.20
2023-05-19T13:59:19.209Z,2.30
2023-05-19T14:01:49.522Z,2.15
2023-05-19T14:04:20.294Z,2.25
2023-05-19T14:06:50.977Z,2.33
2023-05-19T14:09:21.401Z,2.05
2023-05-19T14:11:51.628Z,2.85
2023-05-19T14:14:21.794Z,1.88
2023-05-19T14:16:51.990Z,2.65
2023-05-19T14:19:23.221Z,2.13
2023-05-19T14:21:53.501Z,2.35
2023-05-19T14:24:23.840Z,2.50
2023-05-19T14:26:54.240Z,2.30
2023-05-19T14:29:24.474Z,3.00
2023-05-19T14:31:54.632Z,2.15
2023-05-19T14:34:24.947Z,2.33
2023-05-19T14:36:55.252Z,2.35
2023-05-19T14:39:25.438Z,2.38
2023-05-19T14:41:56.436Z,2.25
2023-05-19T14:44:24.042Z,2.90
2023-05-19T14:46:52.566Z,2.40
2023-05-19T14:49:20.874Z,2.35
2023-05-19T14:51:49.313Z,2.50
2023-05-19T14:54:17.755Z,2.38
2023-05-19T14:56:46.545Z,2.20
2023-05-19T14:59:14.971Z,2.40
2023-05-19T15:01:43.480Z,2.47
2023-05-19T15:04:11.880Z,2.25
2023-05-19T15:06:40.320Z,2.10
2023-05-19T15:09:08.751Z,2.22
2023-05-19T15:11:38.973Z,2.33
2023-05-19T15:14:09.162Z,2.38
2023-05-19T15:16:39.402Z,2.30
2023-05-19T15:19:09.646Z,2.50
2023-05-19T15:21:40.019Z,2.35
2023-05-19T15:24:10.308Z,2.55
2023-05-19T15:26:40.616Z,2.40
2023-05-19T15:29:10.891Z,2.38
2023-05-19T15:31:41.574Z,2.45
2023-05-19T15:34:11.953Z,2.65
2023-05-19T15:36:42.202Z,2.42
2023-05-19T15:39:12.670Z,2.10
2023-05-19T15:41:42.935Z,2.28
2023-05-19T15:44:13.129Z,2.60
2023-05-19T15:46:43.440Z,2.35
2023-05-19T15:49:13.899Z,2.40
2023-05-19T15:51:45.328Z,2.38
2023-05-19T15:54:15.618Z,1.92
2023-05-19T15:56:45.887Z,2.78
2023-05-19T15:59:16.054Z,2.30
2023-05-19T16:01:46.719Z,2.30
2023-05-19T16:04:17.943Z,2.00
2023-05-19T16:06:48.196Z,2.47
2023-05-19T16:09:18.370Z,2.85
2023-05-19T16:11:48.694Z,2.67
2023-05-19T16:14:18.915Z,1.98
2023-05-19T16:16:49.262Z,2.25
2023-05-19T16:19:19.585Z,2.58
2023-05-19T16:21:50.214Z,2.60
2023-05-19T16:24:20.451Z,2.03
2023-05-19T16:26:53.301Z,2.15
2023-05-19T16:29:23.476Z,2.35
2023-05-19T16:31:53.714Z,2.78
2023-05-19T16:34:23.991Z,2.40
2023-05-19T16:36:54.207Z,2.55
2023-05-19T16:39:24.428Z,2.85
2023-05-19T16:41:54.611Z,2.20
2023-05-19T16:44:25.824Z,2.10
2023-05-19T16:46:55.971Z,2.90
2023-05-19T16:49:26.199Z,2.55
2023-05-19T16:51:56.866Z,2.95
2023-05-19T16:54:28.757Z,2.75
2023-05-19T16:56:58.934Z,2.63
2023-05-19T16:59:29.276Z,2.55
2023-05-19T17:01:59.468Z,2.58
2023-05-19T17:04:30.758Z,2.53
2023-05-19T17:07:01.210Z,2.92
2023-05-19T17:09:31.515Z,2.50
2023-05-19T17:12:01.703Z,7.45
2023-05-19T17:14:31.878Z,6.05
2023-05-19T17:17:02.293Z,8.30
2023-05-19T17:19:32.680Z,3.10
2023-05-19T17:22:02.964Z,3.40
2023-05-19T17:24:33.474Z,2.58
2023-05-19T17:27:03.847Z,2.50
2023-05-19T17:29:34.701Z,2.45
2023-05-19T17:32:07.601Z,2.70
2023-05-19T17:34:38.557Z,2.90
2023-05-19T17:37:08.752Z,2.85
2023-05-19T17:39:38.918Z,3.03
2023-05-19T17:42:11.141Z,7.50
2023-05-19T17:44:38.743Z,2.95
2023-05-19T17:47:08.311Z,8.85
2023-05-19T17:49:35.690Z,5.00
2023-05-19T17:52:04.746Z,2.88
2023-05-19T17:54:33.194Z,2.60
2023-05-19T17:57:10.171Z,2.63
2023-05-19T17:59:40.381Z,2.45
2023-05-19T18:02:12.119Z,2.85
2023-05-19T18:04:42.998Z,2.53
2023-05-19T18:07:14.790Z,2.90
2023-05-19T18:09:46.635Z,2.72
2023-05-19T18:12:17.728Z,3.10
2023-05-19T18:14:47.897Z,2.83
2023-05-19T18:17:18.066Z,2.75
2023-05-19T18:19:47.856Z,2.63
2023-05-19T18:22:17.903Z,2.63
2023-05-19T18:24:48.089Z,2.80
2023-05-19T18:27:17.926Z,2.83
2023-05-19T18:29:47.967Z,2.63
2023-05-19T18:32:18.126Z,2.60
2023-05-19T18:34:48.153Z,2.35
2023-05-19T18:37:18.446Z,2.53
2023-05-19T18:39:48.594Z,2.28
2023-05-19T18:42:18.623Z,2.88
2023-05-19T18:44:48.665Z,2.78
2023-05-19T18:47:22.931Z,2.85
2023-05-19T18:49:53.368Z,2.85
2023-05-19T18:52:22.982Z,2.88
2023-05-19T18:54:52.996Z,3.00
2023-05-19T18:57:22.862Z,3.58
2023-05-19T18:59:53.073Z,3.60
2023-05-19T19:02:23.276Z,3.67
2023-05-19T19:04:53.121Z,3.60
2023-05-19T19:07:26.937Z,4.28
2023-05-19T19:09:56.165Z,3.70
2023-05-19T19:12:26.458Z,4.97
2023-05-19T19:14:56.773Z,3.47
2023-05-19T19:17:26.866Z,4.07
2023-05-19T19:19:57.363Z,3.85
2023-05-19T19:22:27.158Z,3.97
2023-05-19T19:24:57.044Z,3.80
2023-05-19T19:27:31.159Z,4.32
2023-05-19T19:30:02.186Z,3.83
2023-05-19T19:32:32.673Z,3.65
2023-05-19T19:35:02.931Z,5.43
2023-05-19T19:37:32.700Z,4.60
2023-05-19T19:40:02.619Z,4.07
2023-05-19T19:42:32.522Z,4.20
2023-05-19T19:45:02.559Z,4.13
2023-05-19T19:47:32.987Z,4.55
2023-05-19T19:50:05.872Z,4.18
2023-05-19T19:52:36.439Z,4.80
2023-05-19T19:55:06.960Z,4.43
2023-05-19T19:57:37.062Z,4.13
2023-05-19T20:00:09.342Z,4.35
2023-05-19T20:02:51.371Z,3.92
2023-05-19T20:05:29.011Z,4.93
2023-05-19T20:07:56.213Z,4.95
2023-05-19T20:10:26.189Z,4.97
2023-05-19T20:12:54.553Z,5.10
2023-05-19T20:15:23.219Z,4.32
2023-05-19T20:17:51.432Z,4.13
2023-05-19T20:20:19.910Z,4.25
2023-05-19T20:22:48.310Z,4.63
2023-05-19T20:25:16.717Z,5.10
2023-05-19T20:27:45.099Z,3.90
2023-05-19T20:30:13.551Z,4.60
2023-05-19T20:32:42.039Z,4.05
2023-05-19T20:35:10.775Z,4.85
2023-05-19T20:37:40.134Z,4.30
2023-05-19T20:40:11.333Z,4.05
2023-05-19T20:42:41.114Z,5.80
2023-05-19T20:45:11.784Z,4.40
2023-05-19T20:47:41.997Z,4.10
2023-05-19T20:50:12.262Z,4.00
2023-05-19T20:52:42.483Z,4.90
2023-05-19T20:55:12.704Z,4.40
2023-05-19T20:57:44.649Z,4.22
2023-05-19T21:00:15.219Z,4.57
2023-05-19T21:02:45.627Z,4.90
2023-05-19T21:05:15.901Z,4.45
2023-05-19T21:07:46.200Z,4.30
2023-05-19T21:10:18.047Z,4.70
2023-05-19T21:12:48.559Z,4.60
2023-05-19T21:15:19.071Z,4.20
2023-05-19T21:17:49.324Z,4.50
2023-05-19T21:20:19.712Z,5.68
2023-05-19T21:22:49.915Z,4.47
2023-05-19T21:25:20.091Z,4.30
2023-05-19T21:27:51.562Z,4.13
2023-05-19T21:30:23.663Z,5.25
2023-05-19T21:32:53.994Z,5.13
2023-05-19T21:35:24.349Z,4.75
2023-05-19T21:37:54.600Z,4.97
2023-05-19T21:40:24.881Z,4.78
2023-05-19T21:42:55.022Z,4.80
2023-05-19T21:45:25.416Z,5.10
2023-05-19T21:47:55.599Z,4.55
2023-05-19T21:50:25.842Z,5.00
2023-05-19T21:52:56.028Z,4.45
2023-05-19T21:55:26.270Z,4.50
2023-05-19T21:57:56.447Z,4.55
2023-05-19T22:00:26.603Z,4.60
2023-05-19T22:02:57.451Z,4.53
2023-05-19T22:05:31.286Z,5.20
2023-05-19T22:08:01.843Z,4.70
2023-05-19T22:10:32.238Z,4.75
2023-05-19T22:13:02.705Z,4.28
2023-05-19T22:15:32.848Z,5.13
2023-05-19T22:18:03.124Z,5.10
2023-05-19T22:20:33.560Z,4.50
2023-05-19T22:23:04.505Z,4.80
2023-05-19T22:25:34.775Z,4.18
2023-05-19T22:28:07.661Z,4.43
2023-05-19T22:30:40.999Z,4.70
2023-05-19T22:33:13.258Z,4.68
2023-05-19T22:35:43.468Z,4.93
2023-05-19T22:38:13.681Z,5.05
2023-05-19T22:40:44.104Z,4.22
2023-05-19T22:43:14.275Z,5.22
2023-05-19T22:45:44.590Z,4.53
2023-05-19T22:48:14.816Z,5.10
2023-05-19T22:50:45.273Z,4.20
2023-05-19T22:53:15.478Z,4.63
2023-05-19T22:55:45.853Z,5.00
2023-05-19T22:58:16.055Z,4.82
2023-05-19T23:00:46.276Z,5.25
2023-05-19T23:03:16.517Z,5.63
2023-05-19T23:05:46.700Z,5.93
2023-05-19T23:08:15.217Z,5.68
2023-05-19T23:10:44.733Z,5.70
2023-05-19T23:13:16.061Z,5.63
2023-05-19T23:15:46.301Z,5.50
2023-05-19T23:18:16.482Z,6.35
2023-05-19T23:20:46.620Z,5.50
2023-05-19T23:23:17.262Z,5.88
2023-05-19T23:25:45.281Z,5.45
2023-05-19T23:28:13.629Z,5.50
2023-05-19T23:30:42.060Z,5.40
2023-05-19T23:33:10.550Z,5.57
2023-05-19T23:35:39.760Z,5.10
2023-05-19T23:38:07.408Z,5.75
2023-05-19T23:40:35.927Z,5.03
2023-05-19T23:43:04.221Z,5.70
2023-05-19T23:45:33.151Z,5.20
2023-05-19T23:48:01.167Z,5.53
2023-05-19T23:50:29.537Z,5.95
2023-05-19T23:52:57.845Z,5.93
2023-05-19T23:55:26.366Z,5.95
2023-05-19T23:57:54.675Z,5.43
